Aérodrome :
LOGIN :

S'inscrire | Disclaimer

   EN    FR    IT 

 










Légende :    VFR   VFR Marginal   IFR   IFR Intensif   IFR Très Intensif
Visi : 
Plafond : 
>= 8 km
>= 3000ft
5 à 8 km
1000 à 3000 ft
1500m à 5 km
500 à 1000 ft
800 à 1500m
200 à 500 ft
< 800m
< 200 ft
Symboles :   Orages  Brouillard  Fortes neiges  Fortes précipitations  Vent > 20 kt
SIGMETs :   Divers  Orages  Givrage  Turbulence  Onde Orograph.  Cendres Volcan.







- Altitude de l'aérodrome : 821 ft
- Code IATA : LYS
- Voir les cartes d'approche


LFLL - Lyon St Exupéry / Satolas

DERNIER METAR :
  • 150230Z 33003KT 9000 OVC020 M00/M03 Q1022 NOSIG

METARs EXPIRÉS :
  • 150200Z 34005KT 9999 OVC019 M00/M03 Q1023 NOSIG
  • 150130Z 34005KT 9999 OVC020 M00/M03 Q1022 NOSIG
  • 150100Z 34006KT 9999 OVC021 M00/M03 Q1023 NOSIG
  • 150030Z 34006KT 9999 OVC020 M00/M03 Q1023 NOSIG

TAF AMD TAF LFLL
Valide du 15 à 03h jusqu'au 16 à 06h UTC


150301Z 1503/1606 VRB03KT 9000 OVC020
PROB40 1505/1510 OVC008
PROB30
TEMPO 1505/1508 3000 BR BKN004
BECMG 1510/1512 SCT020
BECMG 1513/1515 NSC
BECMG 1518/1520 15005KT -RA OVC040
PROB40
TEMPO 1522/1603 18015KT 4000 RA BKN014 OVC025
BECMG 1603/1605 NSW
Pas de NOTAMs connus pour ce terrain.



MET'MAP, la Météo Aéronautique d'un coup d'oeil ! - Copyright ORBIFLY Décembre 2007 - Disclaimer

ORBIFLY MET'MAP TEAM :

Programmation & Développement : Alexandra Zaïnal
Conception & Développement : Baudouin d'Aumeries
Co-Programmation & Développement : Marc-Olivier Méhu
Soutien technique & logistique : Manuel Goepfert

Contact : metmap@orbifly.com




SOURCES & CREDITS :

   NOAA